Impacts METAR Board
IDs:

KCNW - Waco/Texas State Tec, TX, US

Updated at: 0300 UTC 18 Jan 2022
Potential Impact None Slight Moderate High
Time 17/15Z 17/16Z 17/17Z 17/18Z 17/19Z 17/20Z 17/21Z 17/22Z 17/23Z 18/00Z 18/01Z 18/02Z 18/03Z
Temp37 46 54 59 63 64 66 66 64 59 52 48 45
Dewpt28 28 25 19 21 21 21 23 23 23 25 25 27
Altim30.20 30.21 30.22 30.19 30.14 30.12 30.08 30.07 30.06 30.05 30.05 30.06 30.06
VIS10 10 10 10 10 10 10 10 10 10 10 10 10
CIG-- -- -- -- -- -- -- -- -- -- -- -- --
CoverSKCSKCSKCSKCSKCSKCSKCSKCSKCSKCSKCSKCSKC
FltCatVFRVFRVFRVFRVFRVFRVFRVFRVFRVFRVFRVFRVFR
WX--------------------------
WDir330019014001501501501701601401400
WSpd5 0 4 6 0 6 6 3 6 6 4 3 0
WGst-- -- -- -- -- -- -- -- -- -- -- -- --
Raw hourly METARs
KCNW 171455Z 33005KT 10SM SKC 03/M02 A3020
KCNW 171555Z 00000KT 10SM SKC 08/M02 A3021
KCNW 171655Z 19004KT 10SM SKC 12/M04 A3022
KCNW 171755Z 14006KT 10SM SKC 15/M07 A3019
KCNW 171855Z 00000KT 10SM SKC 17/M06 A3014
KCNW 171955Z 15006KT 10SM SKC 18/M06 A3012
KCNW 172055Z 15006KT 10SM SKC 19/M06 A3008
KCNW 172155Z 15003KT 10SM SKC 19/M05 A3007
KCNW 172255Z 17006KT 10SM SKC 18/M05 A3006
KCNW 172355Z 16006KT 10SM SKC 15/M05 A3005
KCNW 180055Z 14004KT 10SM SKC 11/M04 A3005
KCNW 180155Z 14003KT 10SM SKC 09/M04 A3006
KCNW 180255Z 00000KT 10SM SKC 07/M03 A3006